sensor_id;sensor_type;location;lat;lon;timestamp;temperature;humidity
52044;DHT22;38053;53.100;6.078;2023-07-20T00:01:28;14.60;99.90
52044;DHT22;38053;53.100;6.078;2023-07-20T00:03:54;14.50;99.90
52044;DHT22;38053;53.100;6.078;2023-07-20T00:06:24;14.40;99.90
52044;DHT22;38053;53.100;6.078;2023-07-20T00:08:56;14.30;99.90
52044;DHT22;38053;53.100;6.078;2023-07-20T00:11:26;14.20;99.90
52044;DHT22;38053;53.100;6.078;2023-07-20T00:13:52;14.10;99.90
52044;DHT22;38053;53.100;6.078;2023-07-20T00:16:18;14.10;99.90
52044;DHT22;38053;53.100;6.078;2023-07-20T00:18:43;14.00;99.90
52044;DHT22;38053;53.100;6.078;2023-07-20T00:21:09;13.90;99.90
52044;DHT22;38053;53.100;6.078;2023-07-20T00:23:35;13.90;99.90
52044;DHT22;38053;53.100;6.078;2023-07-20T00:26:01;13.90;99.90
52044;DHT22;38053;53.100;6.078;2023-07-20T00:28:26;13.80;99.90
52044;DHT22;38053;53.100;6.078;2023-07-20T00:30:52;13.80;99.90
52044;DHT22;38053;53.100;6.078;2023-07-20T00:33:18;13.80;99.90
52044;DHT22;38053;53.100;6.078;2023-07-20T00:35:44;13.70;99.90
52044;DHT22;38053;53.100;6.078;2023-07-20T00:38:10;13.70;99.90
52044;DHT22;38053;53.100;6.078;2023-07-20T00:40:37;13.70;99.90
52044;DHT22;38053;53.100;6.078;2023-07-20T00:43:03;13.60;99.90
52044;DHT22;38053;53.100;6.078;2023-07-20T00:45:29;13.60;99.90
52044;DHT22;38053;53.100;6.078;2023-07-20T00:47:56;13.60;99.90
52044;DHT22;38053;53.100;6.078;2023-07-20T00:50:22;13.50;99.90
52044;DHT22;38053;53.100;6.078;2023-07-20T00:52:49;13.50;99.90
52044;DHT22;38053;53.100;6.078;2023-07-20T00:55:15;13.40;99.90
52044;DHT22;38053;53.100;6.078;2023-07-20T00:57:41;13.40;99.90
52044;DHT22;38053;53.100;6.078;2023-07-20T01:00:07;13.30;99.90
52044;DHT22;38053;53.100;6.078;2023-07-20T01:02:33;13.30;99.90
52044;DHT22;38053;53.100;6.078;2023-07-20T01:04:59;13.20;99.90
52044;DHT22;38053;53.100;6.078;2023-07-20T01:07:30;13.20;99.90
52044;DHT22;38053;53.100;6.078;2023-07-20T01:10:12;13.20;99.90
52044;DHT22;38053;53.100;6.078;2023-07-20T01:12:46;13.20;99.90
52044;DHT22;38053;53.100;6.078;2023-07-20T01:15:12;13.20;99.90
52044;DHT22;38053;53.100;6.078;2023-07-20T01:17:39;13.10;99.90
52044;DHT22;38053;53.100;6.078;2023-07-20T01:20:06;13.10;99.90
52044;DHT22;38053;53.100;6.078;2023-07-20T01:31:17;13.10;99.90
52044;DHT22;38053;53.100;6.078;2023-07-20T01:33:47;13.00;99.90
52044;DHT22;38053;53.100;6.078;2023-07-20T01:36:14;13.00;99.90
52044;DHT22;38053;53.100;6.078;2023-07-20T01:38:42;13.00;99.90
52044;DHT22;38053;53.100;6.078;2023-07-20T01:41:08;13.00;99.90
52044;DHT22;38053;53.100;6.078;2023-07-20T01:43:34;13.00;99.90
52044;DHT22;38053;53.100;6.078;2023-07-20T01:46:00;13.00;99.90
52044;DHT22;38053;53.100;6.078;2023-07-20T01:48:26;13.00;99.90
52044;DHT22;38053;53.100;6.078;2023-07-20T01:50:51;13.00;99.90
52044;DHT22;38053;53.100;6.078;2023-07-20T01:53:19;13.00;99.90
52044;DHT22;38053;53.100;6.078;2023-07-20T01:55:45;13.10;99.90
52044;DHT22;38053;53.100;6.078;2023-07-20T01:58:10;13.00;99.90
52044;DHT22;38053;53.100;6.078;2023-07-20T02:00:39;13.00;99.90
52044;DHT22;38053;53.100;6.078;2023-07-20T02:03:05;13.00;99.90
52044;DHT22;38053;53.100;6.078;2023-07-20T02:05:31;13.00;99.90
52044;DHT22;38053;53.100;6.078;2023-07-20T02:07:57;13.00;99.90
52044;DHT22;38053;53.100;6.078;2023-07-20T02:10:23;12.90;99.90
52044;DHT22;38053;53.100;6.078;2023-07-20T02:12:48;12.90;99.90
52044;DHT22;38053;53.100;6.078;2023-07-20T02:15:15;12.90;99.90
52044;DHT22;38053;53.100;6.078;2023-07-20T02:17:42;12.80;99.90
52044;DHT22;38053;53.100;6.078;2023-07-20T02:20:09;12.80;99.90
52044;DHT22;38053;53.100;6.078;2023-07-20T02:22:36;12.70;99.90
52044;DHT22;38053;53.100;6.078;2023-07-20T02:25:07;12.70;99.90
52044;DHT22;38053;53.100;6.078;2023-07-20T02:27:37;12.60;99.90
52044;DHT22;38053;53.100;6.078;2023-07-20T02:30:03;12.60;99.90
52044;DHT22;38053;53.100;6.078;2023-07-20T02:32:30;12.50;99.90
52044;DHT22;38053;53.100;6.078;2023-07-20T02:34:58;12.50;99.90
52044;DHT22;38053;53.100;6.078;2023-07-20T02:37:24;12.50;99.90
52044;DHT22;38053;53.100;6.078;2023-07-20T02:39:50;12.50;99.90
52044;DHT22;38053;53.100;6.078;2023-07-20T02:42:16;12.40;99.90
52044;DHT22;38053;53.100;6.078;2023-07-20T02:44:43;12.40;99.90
52044;DHT22;38053;53.100;6.078;2023-07-20T02:47:09;12.40;99.90
52044;DHT22;38053;53.100;6.078;2023-07-20T02:49:34;12.40;99.90
52044;DHT22;38053;53.100;6.078;2023-07-20T02:52:00;12.30;99.90
52044;DHT22;38053;53.100;6.078;2023-07-20T02:54:28;12.30;99.90
52044;DHT22;38053;53.100;6.078;2023-07-20T02:56:55;12.30;99.90
52044;DHT22;38053;53.100;6.078;2023-07-20T02:59:21;12.30;99.90
52044;DHT22;38053;53.100;6.078;2023-07-20T03:01:46;12.30;99.90
52044;DHT22;38053;53.100;6.078;2023-07-20T03:04:12;12.30;99.90
52044;DHT22;38053;53.100;6.078;2023-07-20T03:06:38;12.30;99.90
52044;DHT22;38053;53.100;6.078;2023-07-20T03:09:04;12.20;99.90
52044;DHT22;38053;53.100;6.078;2023-07-20T03:11:31;12.20;99.90
52044;DHT22;38053;53.100;6.078;2023-07-20T03:13:57;12.20;99.90
52044;DHT22;38053;53.100;6.078;2023-07-20T03:16:23;12.20;99.90
52044;DHT22;38053;53.100;6.078;2023-07-20T03:18:50;12.10;99.90
52044;DHT22;38053;53.100;6.078;2023-07-20T03:21:19;12.10;99.90
52044;DHT22;38053;53.100;6.078;2023-07-20T03:23:45;12.10;99.90
52044;DHT22;38053;53.100;6.078;2023-07-20T03:26:11;12.10;99.90
52044;DHT22;38053;53.100;6.078;2023-07-20T03:28:38;12.10;99.90
52044;DHT22;38053;53.100;6.078;2023-07-20T03:31:04;12.10;99.90
52044;DHT22;38053;53.100;6.078;2023-07-20T03:33:31;12.00;99.90
52044;DHT22;38053;53.100;6.078;2023-07-20T03:35:59;12.00;99.90
52044;DHT22;38053;53.100;6.078;2023-07-20T03:38:27;12.00;99.90
52044;DHT22;38053;53.100;6.078;2023-07-20T03:43:20;12.00;99.90
52044;DHT22;38053;53.100;6.078;2023-07-20T03:45:46;11.90;99.90
52044;DHT22;38053;53.100;6.078;2023-07-20T03:48:16;11.90;99.90
52044;DHT22;38053;53.100;6.078;2023-07-20T03:50:44;11.90;99.90
52044;DHT22;38053;53.100;6.078;2023-07-20T03:53:11;11.90;99.90
52044;DHT22;38053;53.100;6.078;2023-07-20T03:55:37;11.90;99.90
52044;DHT22;38053;53.100;6.078;2023-07-20T03:58:03;11.90;99.90
52044;DHT22;38053;53.100;6.078;2023-07-20T04:00:29;11.90;99.90
52044;DHT22;38053;53.100;6.078;2023-07-20T04:02:54;11.80;99.90
52044;DHT22;38053;53.100;6.078;2023-07-20T04:05:20;11.80;99.90
52044;DHT22;38053;53.100;6.078;2023-07-20T04:07:46;11.80;99.90
52044;DHT22;38053;53.100;6.078;2023-07-20T04:10:12;11.80;99.90
52044;DHT22;38053;53.100;6.078;2023-07-20T04:12:38;11.80;99.90
52044;DHT22;38053;53.100;6.078;2023-07-20T04:15:04;11.80;99.90
52044;DHT22;38053;53.100;6.078;2023-07-20T04:17:30;11.80;99.90
52044;DHT22;38053;53.100;6.078;2023-07-20T04:19:55;11.90;99.90
52044;DHT22;38053;53.100;6.078;2023-07-20T04:22:21;11.90;99.90
52044;DHT22;38053;53.100;6.078;2023-07-20T04:24:47;11.90;99.90
52044;DHT22;38053;53.100;6.078;2023-07-20T04:27:13;11.90;99.90
52044;DHT22;38053;53.100;6.078;2023-07-20T04:29:39;11.90;99.90
52044;DHT22;38053;53.100;6.078;2023-07-20T04:32:05;11.90;99.90
52044;DHT22;38053;53.100;6.078;2023-07-20T04:34:31;11.90;99.90
52044;DHT22;38053;53.100;6.078;2023-07-20T04:36:56;11.90;99.90
52044;DHT22;38053;53.100;6.078;2023-07-20T04:39:22;12.00;99.90
52044;DHT22;38053;53.100;6.078;2023-07-20T04:41:48;11.90;99.90
52044;DHT22;38053;53.100;6.078;2023-07-20T04:44:16;11.90;99.90
52044;DHT22;38053;53.100;6.078;2023-07-20T04:46:42;12.00;99.90
52044;DHT22;38053;53.100;6.078;2023-07-20T04:49:08;12.00;99.90
52044;DHT22;38053;53.100;6.078;2023-07-20T04:51:33;12.00;99.90
52044;DHT22;38053;53.100;6.078;2023-07-20T04:53:59;12.10;99.90
52044;DHT22;38053;53.100;6.078;2023-07-20T04:56:25;12.10;99.90
52044;DHT22;38053;53.100;6.078;2023-07-20T04:58:51;12.20;99.90
52044;DHT22;38053;53.100;6.078;2023-07-20T05:01:19;12.20;99.90
52044;DHT22;38053;53.100;6.078;2023-07-20T05:03:44;12.20;99.90
52044;DHT22;38053;53.100;6.078;2023-07-20T05:06:10;12.30;99.90
52044;DHT22;38053;53.100;6.078;2023-07-20T05:08:36;12.30;99.90
52044;DHT22;38053;53.100;6.078;2023-07-20T05:11:01;12.30;99.90
52044;DHT22;38053;53.100;6.078;2023-07-20T05:13:27;12.40;99.90
52044;DHT22;38053;53.100;6.078;2023-07-20T05:15:53;12.40;99.90
52044;DHT22;38053;53.100;6.078;2023-07-20T05:18:22;12.40;99.90
52044;DHT22;38053;53.100;6.078;2023-07-20T05:20:48;12.60;99.90
52044;DHT22;38053;53.100;6.078;2023-07-20T05:23:15;12.60;99.90
52044;DHT22;38053;53.100;6.078;2023-07-20T05:25:41;12.70;99.90
52044;DHT22;38053;53.100;6.078;2023-07-20T05:28:07;12.70;99.90
52044;DHT22;38053;53.100;6.078;2023-07-20T05:30:32;12.80;99.90
52044;DHT22;38053;53.100;6.078;2023-07-20T05:32:58;12.90;99.90
52044;DHT22;38053;53.100;6.078;2023-07-20T05:35:26;13.00;99.90
52044;DHT22;38053;53.100;6.078;2023-07-20T05:37:52;13.10;99.90
52044;DHT22;38053;53.100;6.078;2023-07-20T05:40:18;13.20;99.90
52044;DHT22;38053;53.100;6.078;2023-07-20T05:42:48;13.30;99.90
52044;DHT22;38053;53.100;6.078;2023-07-20T05:45:14;13.40;99.90
52044;DHT22;38053;53.100;6.078;2023-07-20T05:47:41;13.50;99.90
52044;DHT22;38053;53.100;6.078;2023-07-20T05:50:08;13.50;99.90
52044;DHT22;38053;53.100;6.078;2023-07-20T05:52:34;13.60;99.90
52044;DHT22;38053;53.100;6.078;2023-07-20T05:54:59;13.60;99.90
52044;DHT22;38053;53.100;6.078;2023-07-20T05:57:25;13.70;99.90
52044;DHT22;38053;53.100;6.078;2023-07-20T05:59:51;13.80;99.90
52044;DHT22;38053;53.100;6.078;2023-07-20T06:02:17;13.80;99.90
52044;DHT22;38053;53.100;6.078;2023-07-20T06:04:42;13.90;99.90
52044;DHT22;38053;53.100;6.078;2023-07-20T06:07:08;13.90;99.90
52044;DHT22;38053;53.100;6.078;2023-07-20T06:09:35;14.00;99.90
52044;DHT22;38053;53.100;6.078;2023-07-20T06:12:01;14.10;99.90
52044;DHT22;38053;53.100;6.078;2023-07-20T06:14:27;14.10;99.90
52044;DHT22;38053;53.100;6.078;2023-07-20T06:16:53;14.20;99.90
52044;DHT22;38053;53.100;6.078;2023-07-20T06:19:18;14.30;99.90
52044;DHT22;38053;53.100;6.078;2023-07-20T06:21:44;14.30;99.90
52044;DHT22;38053;53.100;6.078;2023-07-20T06:24:10;14.40;99.90
52044;DHT22;38053;53.100;6.078;2023-07-20T06:26:35;14.50;99.90
52044;DHT22;38053;53.100;6.078;2023-07-20T06:29:08;14.50;99.90
52044;DHT22;38053;53.100;6.078;2023-07-20T06:31:37;14.60;99.90
52044;DHT22;38053;53.100;6.078;2023-07-20T06:34:03;14.60;99.90
52044;DHT22;38053;53.100;6.078;2023-07-20T06:36:29;14.70;99.90
52044;DHT22;38053;53.100;6.078;2023-07-20T06:38:58;14.80;99.90
52044;DHT22;38053;53.100;6.078;2023-07-20T06:41:24;14.80;99.90
52044;DHT22;38053;53.100;6.078;2023-07-20T06:43:50;14.90;99.90
52044;DHT22;38053;53.100;6.078;2023-07-20T06:46:21;15.00;99.90
52044;DHT22;38053;53.100;6.078;2023-07-20T06:48:47;15.00;99.90
52044;DHT22;38053;53.100;6.078;2023-07-20T06:51:15;15.00;99.90
52044;DHT22;38053;53.100;6.078;2023-07-20T06:53:42;15.10;99.90
52044;DHT22;38053;53.100;6.078;2023-07-20T06:56:07;15.10;99.90
52044;DHT22;38053;53.100;6.078;2023-07-20T06:58:33;15.20;99.90
52044;DHT22;38053;53.100;6.078;2023-07-20T07:00:59;15.20;99.90
52044;DHT22;38053;53.100;6.078;2023-07-20T07:03:24;15.30;99.90
52044;DHT22;38053;53.100;6.078;2023-07-20T07:05:50;15.40;99.90
52044;DHT22;38053;53.100;6.078;2023-07-20T07:08:20;15.40;99.90
52044;DHT22;38053;53.100;6.078;2023-07-20T07:10:45;15.50;99.90
52044;DHT22;38053;53.100;6.078;2023-07-20T07:13:11;15.60;99.90
52044;DHT22;38053;53.100;6.078;2023-07-20T07:15:37;15.70;99.90
52044;DHT22;38053;53.100;6.078;2023-07-20T07:18:04;15.80;99.90
52044;DHT22;38053;53.100;6.078;2023-07-20T07:20:29;15.90;99.90
52044;DHT22;38053;53.100;6.078;2023-07-20T07:22:55;16.00;99.90
52044;DHT22;38053;53.100;6.078;2023-07-20T07:25:22;16.10;99.90
52044;DHT22;38053;53.100;6.078;2023-07-20T07:27:48;16.20;99.90
52044;DHT22;38053;53.100;6.078;2023-07-20T07:30:14;16.40;99.90
52044;DHT22;38053;53.100;6.078;2023-07-20T07:32:40;16.50;99.90
52044;DHT22;38053;53.100;6.078;2023-07-20T07:35:07;16.50;99.90
52044;DHT22;38053;53.100;6.078;2023-07-20T07:37:32;16.50;99.90
52044;DHT22;38053;53.100;6.078;2023-07-20T07:39:58;16.40;99.90
52044;DHT22;38053;53.100;6.078;2023-07-20T07:42:24;16.20;99.90
52044;DHT22;38053;53.100;6.078;2023-07-20T07:44:49;16.10;99.90
52044;DHT22;38053;53.100;6.078;2023-07-20T07:47:15;16.00;99.90
52044;DHT22;38053;53.100;6.078;2023-07-20T07:49:41;15.90;99.90
52044;DHT22;38053;53.100;6.078;2023-07-20T07:52:07;15.80;99.90
52044;DHT22;38053;53.100;6.078;2023-07-20T07:54:33;15.80;99.90
52044;DHT22;38053;53.100;6.078;2023-07-20T07:57:01;15.90;99.90
52044;DHT22;38053;53.100;6.078;2023-07-20T07:59:27;16.10;99.90
52044;DHT22;38053;53.100;6.078;2023-07-20T08:01:55;16.20;99.90
52044;DHT22;38053;53.100;6.078;2023-07-20T08:04:22;16.40;99.90
52044;DHT22;38053;53.100;6.078;2023-07-20T08:06:48;16.50;99.90
52044;DHT22;38053;53.100;6.078;2023-07-20T08:09:14;16.60;99.90
52044;DHT22;38053;53.100;6.078;2023-07-20T08:11:40;16.70;99.90
52044;DHT22;38053;53.100;6.078;2023-07-20T08:14:06;16.80;99.90
52044;DHT22;38053;53.100;6.078;2023-07-20T08:16:32;16.90;99.90
52044;DHT22;38053;53.100;6.078;2023-07-20T08:18:59;17.00;99.90
52044;DHT22;38053;53.100;6.078;2023-07-20T08:21:25;17.10;99.90
52044;DHT22;38053;53.100;6.078;2023-07-20T08:23:51;17.20;99.90
52044;DHT22;38053;53.100;6.078;2023-07-20T08:26:19;17.30;99.90
52044;DHT22;38053;53.100;6.078;2023-07-20T08:28:48;17.40;99.90
52044;DHT22;38053;53.100;6.078;2023-07-20T08:31:14;17.50;99.90
52044;DHT22;38053;53.100;6.078;2023-07-20T08:33:42;17.60;99.90
52044;DHT22;38053;53.100;6.078;2023-07-20T08:36:08;17.60;99.90
52044;DHT22;38053;53.100;6.078;2023-07-20T08:38:34;17.70;99.90
52044;DHT22;38053;53.100;6.078;2023-07-20T08:41:00;17.80;99.90
52044;DHT22;38053;53.100;6.078;2023-07-20T08:43:27;17.90;99.90
52044;DHT22;38053;53.100;6.078;2023-07-20T08:45:57;18.00;99.90
52044;DHT22;38053;53.100;6.078;2023-07-20T08:48:24;18.00;99.90
52044;DHT22;38053;53.100;6.078;2023-07-20T08:50:51;18.10;99.90
52044;DHT22;38053;53.100;6.078;2023-07-20T08:53:21;18.30;99.90
52044;DHT22;38053;53.100;6.078;2023-07-20T08:55:51;18.50;99.90
52044;DHT22;38053;53.100;6.078;2023-07-20T08:58:20;18.60;99.90
52044;DHT22;38053;53.100;6.078;2023-07-20T09:00:46;18.60;99.90
52044;DHT22;38053;53.100;6.078;2023-07-20T09:03:15;18.60;99.90
52044;DHT22;38053;53.100;6.078;2023-07-20T09:05:41;18.50;99.90
52044;DHT22;38053;53.100;6.078;2023-07-20T09:08:07;18.40;99.90
52044;DHT22;38053;53.100;6.078;2023-07-20T09:10:33;18.30;99.90
52044;DHT22;38053;53.100;6.078;2023-07-20T09:13:01;18.20;99.90
52044;DHT22;38053;53.100;6.078;2023-07-20T09:15:29;18.10;99.90
52044;DHT22;38053;53.100;6.078;2023-07-20T09:17:54;18.00;99.90
52044;DHT22;38053;53.100;6.078;2023-07-20T09:20:25;18.00;99.90
52044;DHT22;38053;53.100;6.078;2023-07-20T09:22:51;17.90;99.90
52044;DHT22;38053;53.100;6.078;2023-07-20T09:25:18;17.90;99.90
52044;DHT22;38053;53.100;6.078;2023-07-20T09:27:48;18.10;99.90
52044;DHT22;38053;53.100;6.078;2023-07-20T09:30:16;18.40;99.90
52044;DHT22;38053;53.100;6.078;2023-07-20T09:32:45;18.70;99.90
52044;DHT22;38053;53.100;6.078;2023-07-20T09:35:19;18.90;99.90
52044;DHT22;38053;53.100;6.078;2023-07-20T09:38:01;19.20;99.90
52044;DHT22;38053;53.100;6.078;2023-07-20T09:40:28;19.30;99.90
52044;DHT22;38053;53.100;6.078;2023-07-20T09:42:55;19.40;99.90
52044;DHT22;38053;53.100;6.078;2023-07-20T09:45:33;19.40;99.90
52044;DHT22;38053;53.100;6.078;2023-07-20T09:48:11;19.30;99.90
52044;DHT22;38053;53.100;6.078;2023-07-20T09:50:48;19.50;99.90
52044;DHT22;38053;53.100;6.078;2023-07-20T09:53:18;19.80;99.90
52044;DHT22;38053;53.100;6.078;2023-07-20T09:55:44;20.10;99.90
52044;DHT22;38053;53.100;6.078;2023-07-20T09:58:10;20.10;99.90
52044;DHT22;38053;53.100;6.078;2023-07-20T10:00:37;20.00;99.90
52044;DHT22;38053;53.100;6.078;2023-07-20T10:03:05;19.70;99.90
52044;DHT22;38053;53.100;6.078;2023-07-20T10:05:33;19.40;99.90
52044;DHT22;38053;53.100;6.078;2023-07-20T10:08:03;19.10;99.90
52044;DHT22;38053;53.100;6.078;2023-07-20T10:10:33;18.90;99.90
52044;DHT22;38053;53.100;6.078;2023-07-20T10:13:00;19.00;99.90
52044;DHT22;38053;53.100;6.078;2023-07-20T10:15:40;19.30;99.90
52044;DHT22;38053;53.100;6.078;2023-07-20T10:20:52;19.80;99.90
52044;DHT22;38053;53.100;6.078;2023-07-20T10:23:23;20.00;99.90
52044;DHT22;38053;53.100;6.078;2023-07-20T10:25:50;20.30;99.90
52044;DHT22;38053;53.100;6.078;2023-07-20T10:28:17;20.50;99.90
52044;DHT22;38053;53.100;6.078;2023-07-20T10:30:44;20.80;99.90
52044;DHT22;38053;53.100;6.078;2023-07-20T10:33:11;21.00;99.90
52044;DHT22;38053;53.100;6.078;2023-07-20T10:35:57;20.90;99.90
52044;DHT22;38053;53.100;6.078;2023-07-20T10:38:42;20.90;99.90
52044;DHT22;38053;53.100;6.078;2023-07-20T10:41:34;20.60;99.90
52044;DHT22;38053;53.100;6.078;2023-07-20T10:44:02;20.30;99.90
52044;DHT22;38053;53.100;6.078;2023-07-20T10:49:05;20.30;99.90
52044;DHT22;38053;53.100;6.078;2023-07-20T10:51:46;20.70;99.90
52044;DHT22;38053;53.100;6.078;2023-07-20T10:56:48;21.50;99.90
52044;DHT22;38053;53.100;6.078;2023-07-20T11:02:06;21.30;99.90
52044;DHT22;38053;53.100;6.078;2023-07-20T11:04:41;21.20;99.90
52044;DHT22;38053;53.100;6.078;2023-07-20T11:07:08;20.60;99.90
52044;DHT22;38053;53.100;6.078;2023-07-20T11:09:35;20.20;99.90
52044;DHT22;38053;53.100;6.078;2023-07-20T11:12:15;19.70;99.90
52044;DHT22;38053;53.100;6.078;2023-07-20T11:14:54;18.90;99.90
52044;DHT22;38053;53.100;6.078;2023-07-20T11:17:29;18.40;99.90
52044;DHT22;38053;53.100;6.078;2023-07-20T11:19:59;18.10;99.90
52044;DHT22;38053;53.100;6.078;2023-07-20T11:22:26;18.00;99.90
52044;DHT22;38053;53.100;6.078;2023-07-20T11:24:55;17.90;99.90
52044;DHT22;38053;53.100;6.078;2023-07-20T11:27:21;17.90;99.90
52044;DHT22;38053;53.100;6.078;2023-07-20T11:29:48;17.90;99.90
52044;DHT22;38053;53.100;6.078;2023-07-20T11:32:24;18.10;99.90
52044;DHT22;38053;53.100;6.078;2023-07-20T11:34:50;18.50;99.90
52044;DHT22;38053;53.100;6.078;2023-07-20T11:37:17;18.90;99.90
52044;DHT22;38053;53.100;6.078;2023-07-20T11:39:44;19.30;99.90
52044;DHT22;38053;53.100;6.078;2023-07-20T11:42:10;19.60;99.90
52044;DHT22;38053;53.100;6.078;2023-07-20T11:44:37;19.90;99.90
52044;DHT22;38053;53.100;6.078;2023-07-20T11:49:37;20.40;99.90
52044;DHT22;38053;53.100;6.078;2023-07-20T11:52:07;20.50;99.90
52044;DHT22;38053;53.100;6.078;2023-07-20T11:54:35;20.70;99.90
52044;DHT22;38053;53.100;6.078;2023-07-20T11:57:04;20.90;99.90
52044;DHT22;38053;53.100;6.078;2023-07-20T11:59:33;20.90;99.90
52044;DHT22;38053;53.100;6.078;2023-07-20T12:02:02;21.10;99.90
52044;DHT22;38053;53.100;6.078;2023-07-20T12:04:35;21.20;99.90
52044;DHT22;38053;53.100;6.078;2023-07-20T12:07:02;21.20;99.90
52044;DHT22;38053;53.100;6.078;2023-07-20T12:09:28;21.30;99.90
52044;DHT22;38053;53.100;6.078;2023-07-20T12:11:54;21.60;99.90
52044;DHT22;38053;53.100;6.078;2023-07-20T12:14:21;21.80;99.90
52044;DHT22;38053;53.100;6.078;2023-07-20T12:16:53;22.00;99.90
52044;DHT22;38053;53.100;6.078;2023-07-20T12:19:20;21.90;99.90
52044;DHT22;38053;53.100;6.078;2023-07-20T12:21:46;21.70;99.90
52044;DHT22;38053;53.100;6.078;2023-07-20T12:24:11;21.40;99.90
52044;DHT22;38053;53.100;6.078;2023-07-20T12:26:37;21.30;99.90
52044;DHT22;38053;53.100;6.078;2023-07-20T12:29:04;21.10;99.90
52044;DHT22;38053;53.100;6.078;2023-07-20T12:31:30;21.00;99.90
52044;DHT22;38053;53.100;6.078;2023-07-20T12:33:57;21.30;99.90
52044;DHT22;38053;53.100;6.078;2023-07-20T12:36:26;21.80;99.90
52044;DHT22;38053;53.100;6.078;2023-07-20T12:38:52;22.00;99.90
52044;DHT22;38053;53.100;6.078;2023-07-20T12:41:17;22.00;99.90
52044;DHT22;38053;53.100;6.078;2023-07-20T12:43:44;21.70;99.90
52044;DHT22;38053;53.100;6.078;2023-07-20T12:46:11;21.50;99.90
52044;DHT22;38053;53.100;6.078;2023-07-20T12:48:40;21.70;99.90
52044;DHT22;38053;53.100;6.078;2023-07-20T12:51:08;22.00;99.90
52044;DHT22;38053;53.100;6.078;2023-07-20T12:53:33;22.40;99.90
52044;DHT22;38053;53.100;6.078;2023-07-20T12:56:00;22.50;99.90
52044;DHT22;38053;53.100;6.078;2023-07-20T12:58:26;22.30;99.90
52044;DHT22;38053;53.100;6.078;2023-07-20T13:00:53;22.10;99.90
52044;DHT22;38053;53.100;6.078;2023-07-20T13:03:19;22.00;99.90
52044;DHT22;38053;53.100;6.078;2023-07-20T13:05:46;22.40;99.90
52044;DHT22;38053;53.100;6.078;2023-07-20T13:08:13;23.00;99.90
52044;DHT22;38053;53.100;6.078;2023-07-20T13:10:39;23.30;99.90
52044;DHT22;38053;53.100;6.078;2023-07-20T13:13:05;23.20;99.90
52044;DHT22;38053;53.100;6.078;2023-07-20T13:15:32;23.20;99.90
52044;DHT22;38053;53.100;6.078;2023-07-20T13:18:05;23.40;99.90
52044;DHT22;38053;53.100;6.078;2023-07-20T13:20:31;23.70;99.90
52044;DHT22;38053;53.100;6.078;2023-07-20T13:22:57;23.80;99.90
52044;DHT22;38053;53.100;6.078;2023-07-20T13:25:22;24.10;99.90
52044;DHT22;38053;53.100;6.078;2023-07-20T13:27:48;24.60;99.60
52044;DHT22;38053;53.100;6.078;2023-07-20T13:30:17;24.70;99.20
52044;DHT22;38053;53.100;6.078;2023-07-20T13:32:47;24.90;99.40
52044;DHT22;38053;53.100;6.078;2023-07-20T13:35:12;25.10;99.60
52044;DHT22;38053;53.100;6.078;2023-07-20T13:37:38;25.40;99.20
52044;DHT22;38053;53.100;6.078;2023-07-20T13:40:05;25.10;99.60
52044;DHT22;38053;53.100;6.078;2023-07-20T13:42:32;25.40;99.40
52044;DHT22;38053;53.100;6.078;2023-07-20T13:44:58;25.10;98.40
52044;DHT22;38053;53.100;6.078;2023-07-20T13:47:25;25.00;99.00
52044;DHT22;38053;53.100;6.078;2023-07-20T13:49:53;25.40;98.00
52044;DHT22;38053;53.100;6.078;2023-07-20T13:52:19;25.40;97.10
52044;DHT22;38053;53.100;6.078;2023-07-20T13:54:44;25.90;97.60
52044;DHT22;38053;53.100;6.078;2023-07-20T13:57:10;26.20;96.60
52044;DHT22;38053;53.100;6.078;2023-07-20T13:59:36;26.00;96.60
52044;DHT22;38053;53.100;6.078;2023-07-20T14:02:02;26.30;96.70
52044;DHT22;38053;53.100;6.078;2023-07-20T14:04:27;26.40;95.60
52044;DHT22;38053;53.100;6.078;2023-07-20T14:06:54;26.10;96.20
52044;DHT22;38053;53.100;6.078;2023-07-20T14:09:23;26.00;95.90
52044;DHT22;38053;53.100;6.078;2023-07-20T14:11:49;25.50;96.20
52044;DHT22;38053;53.100;6.078;2023-07-20T14:14:15;24.90;95.60
52044;DHT22;38053;53.100;6.078;2023-07-20T14:16:42;24.50;95.80
52044;DHT22;38053;53.100;6.078;2023-07-20T14:19:08;24.50;95.80
52044;DHT22;38053;53.100;6.078;2023-07-20T14:21:33;24.60;95.60
52044;DHT22;38053;53.100;6.078;2023-07-20T14:24:02;24.80;96.20
52044;DHT22;38053;53.100;6.078;2023-07-20T14:26:28;24.70;95.50
52044;DHT22;38053;53.100;6.078;2023-07-20T14:28:55;24.70;95.70
52044;DHT22;38053;53.100;6.078;2023-07-20T14:31:21;24.60;93.30
52044;DHT22;38053;53.100;6.078;2023-07-20T14:33:47;24.50;95.20
52044;DHT22;38053;53.100;6.078;2023-07-20T14:36:13;24.50;94.70
52044;DHT22;38053;53.100;6.078;2023-07-20T14:38:38;24.50;94.40
52044;DHT22;38053;53.100;6.078;2023-07-20T14:41:06;24.70;94.70
52044;DHT22;38053;53.100;6.078;2023-07-20T14:43:32;24.30;94.40
52044;DHT22;38053;53.100;6.078;2023-07-20T14:45:58;23.60;94.50
52044;DHT22;38053;53.100;6.078;2023-07-20T14:48:24;23.20;95.00
52044;DHT22;38053;53.100;6.078;2023-07-20T14:50:50;23.00;95.70
52044;DHT22;38053;53.100;6.078;2023-07-20T14:53:19;23.10;95.70
52044;DHT22;38053;53.100;6.078;2023-07-20T14:55:45;23.30;95.70
52044;DHT22;38053;53.100;6.078;2023-07-20T14:58:11;23.60;95.50
52044;DHT22;38053;53.100;6.078;2023-07-20T15:00:37;23.90;95.20
52044;DHT22;38053;53.100;6.078;2023-07-20T15:03:03;23.60;93.20
52044;DHT22;38053;53.100;6.078;2023-07-20T15:05:31;23.50;95.00
52044;DHT22;38053;53.100;6.078;2023-07-20T15:07:56;23.20;94.80
52044;DHT22;38053;53.100;6.078;2023-07-20T15:10:22;22.90;95.60
52044;DHT22;38053;53.100;6.078;2023-07-20T15:12:48;22.70;95.30
52044;DHT22;38053;53.100;6.078;2023-07-20T15:15:14;22.50;95.50
52044;DHT22;38053;53.100;6.078;2023-07-20T15:17:42;22.30;95.90
52044;DHT22;38053;53.100;6.078;2023-07-20T15:20:11;22.30;96.00
52044;DHT22;38053;53.100;6.078;2023-07-20T15:22:37;22.30;96.40
52044;DHT22;38053;53.100;6.078;2023-07-20T15:25:07;22.20;96.60
52044;DHT22;38053;53.100;6.078;2023-07-20T15:27:33;22.00;96.80
52044;DHT22;38053;53.100;6.078;2023-07-20T15:29:59;22.10;96.70
52044;DHT22;38053;53.100;6.078;2023-07-20T15:32:25;22.30;97.00
52044;DHT22;38053;53.100;6.078;2023-07-20T15:34:51;22.20;96.70
52044;DHT22;38053;53.100;6.078;2023-07-20T15:37:17;22.10;96.60
52044;DHT22;38053;53.100;6.078;2023-07-20T15:39:42;22.00;96.90
52044;DHT22;38053;53.100;6.078;2023-07-20T15:42:08;21.90;97.30
52044;DHT22;38053;53.100;6.078;2023-07-20T15:44:34;21.90;97.10
52044;DHT22;38053;53.100;6.078;2023-07-20T15:47:00;22.20;97.20
52044;DHT22;38053;53.100;6.078;2023-07-20T15:49:29;22.60;96.10
52044;DHT22;38053;53.100;6.078;2023-07-20T15:51:55;22.80;95.90
52044;DHT22;38053;53.100;6.078;2023-07-20T15:54:22;22.50;96.40